Time;durP1;ratioP1;P1;durP2;ratioP2;P2;SDS_P1;SDS_P2;PMS_P1;PMS_P2;Temp;Humidity;BMP_temperature;BMP_pressure;BME280_temperature;BME280_humidity;BME280_pressure;Samples;Min_cycle;Max_cycle;Signal;HPM_P1;HPM_P2
2022/05/19 00:02:21;;;;;;;9.90;9.60;;;17.50;99.90;;;;;;5105322;28;20233;-83
2022/05/19 00:04:51;;;;;;;9.88;9.57;;;17.40;99.90;;;;;;5105872;28;20230;-83
2022/05/19 00:07:21;;;;;;;9.65;9.35;;;17.40;99.90;;;;;;5105808;28;20229;-83
2022/05/19 00:09:52;;;;;;;9.90;9.60;;;17.30;99.90;;;;;;5106158;28;20229;-83
2022/05/19 00:12:22;;;;;;;9.50;9.20;;;17.20;99.90;;;;;;5105845;28;20233;-83
2022/05/19 00:14:51;;;;;;;9.60;9.30;;;17.20;99.90;;;;;;5108142;28;20230;-83
2022/05/19 00:17:19;;;;;;;9.88;9.57;;;17.10;99.90;;;;;;5106391;28;20234;-83
2022/05/19 00:19:47;;;;;;;9.80;9.50;;;17.00;99.90;;;;;;5106639;28;20234;-83
2022/05/19 00:22:16;;;;;;;10.18;9.88;;;17.00;99.90;;;;;;5106130;28;20953;-83
2022/05/19 00:24:46;;;;;;;10.00;9.70;;;16.90;99.90;;;;;;5106579;28;20233;-82
2022/05/19 00:27:15;;;;;;;10.25;9.95;;;16.90;99.90;;;;;;5105487;28;20234;-82
2022/05/19 00:29:45;;;;;;;9.98;9.68;;;16.80;99.90;;;;;;5106347;28;20254;-83
2022/05/19 00:32:24;;;;;;;10.07;9.77;;;16.80;99.90;;;;;;5105807;28;20248;-83
2022/05/19 00:34:53;;;;;;;9.80;9.50;;;16.80;99.90;;;;;;5106050;28;20263;-83
2022/05/19 00:37:23;;;;;;;9.98;9.68;;;16.80;99.90;;;;;;5106305;28;20260;-83
2022/05/19 00:39:52;;;;;;;9.90;9.60;;;16.80;99.90;;;;;;5113337;28;20263;-83
2022/05/19 00:45:08;;;;;;;9.80;9.50;;;16.70;99.90;;;;;;5120781;28;20244;-82
2022/05/19 00:47:49;;;;;;;9.73;9.43;;;16.70;99.90;;;;;;5112056;28;20241;-82
2022/05/19 00:50:24;;;;;;;9.70;9.40;;;16.70;99.90;;;;;;5110592;28;20229;-82
2022/05/19 00:52:56;;;;;;;9.75;9.45;;;16.60;99.90;;;;;;5108117;28;20275;-83
2022/05/19 00:55:33;;;;;;;9.65;9.35;;;16.60;99.90;;;;;;5107523;28;20291;-83
2022/05/19 00:58:11;;;;;;;9.70;9.40;;;16.50;99.90;;;;;;5106714;28;20229;-83
2022/05/19 01:00:40;;;;;;;9.68;9.38;;;16.40;99.90;;;;;;5106896;28;20255;-82
2022/05/19 01:03:18;;;;;;;9.68;9.38;;;16.40;99.90;;;;;;5106845;28;20226;-83
2022/05/19 01:05:50;;;;;;;9.40;9.10;;;16.40;99.90;;;;;;5106850;28;20280;-83
2022/05/19 01:08:25;;;;;;;9.40;9.10;;;16.40;99.90;;;;;;5107561;28;20230;-83
2022/05/19 01:10:55;;;;;;;9.60;9.30;;;16.40;99.90;;;;;;5106116;28;20257;-83
2022/05/19 01:13:30;;;;;;;9.45;9.15;;;16.30;99.90;;;;;;5107269;28;20709;-83
2022/05/19 01:15:59;;;;;;;9.30;9.00;;;16.30;99.90;;;;;;5107534;28;20244;-83
2022/05/19 01:18:35;;;;;;;9.35;9.05;;;16.30;99.90;;;;;;5110186;28;20262;-83
2022/05/19 01:21:04;;;;;;;9.60;9.30;;;16.20;99.90;;;;;;5115981;28;20229;-82
2022/05/19 01:23:42;;;;;;;9.60;9.30;;;16.20;99.90;;;;;;5115126;28;20230;-81
2022/05/19 01:26:21;;;;;;;9.90;9.60;;;16.10;99.90;;;;;;5113851;28;20233;-83
2022/05/19 01:28:53;;;;;;;9.70;9.40;;;16.10;99.90;;;;;;5110276;28;20217;-83
2022/05/19 01:31:38;;;;;;;9.40;9.10;;;16.10;99.90;;;;;;5108872;28;20259;-83
2022/05/19 01:34:08;;;;;;;9.48;9.18;;;16.00;99.90;;;;;;5108338;28;20229;-83
2022/05/19 01:36:37;;;;;;;9.55;9.25;;;16.00;99.90;;;;;;5106948;28;20313;-82
2022/05/19 01:39:13;;;;;;;9.55;9.25;;;16.00;99.90;;;;;;5107109;28;20259;-83
2022/05/19 01:42:09;;;;;;;9.50;9.20;;;15.90;99.90;;;;;;5105333;28;20245;-83
2022/05/19 01:44:57;;;;;;;9.90;9.60;;;15.90;99.90;;;;;;5104012;28;20229;-83
2022/05/19 01:47:35;;;;;;;9.60;9.30;;;15.80;99.90;;;;;;5106117;28;20324;-83
2022/05/19 01:50:13;;;;;;;9.35;9.05;;;15.80;99.90;;;;;;5105670;28;20295;-82
2022/05/19 01:55:38;;;;;;;9.45;9.15;;;15.70;99.90;;;;;;5104581;28;20205;-83
2022/05/19 01:58:17;;;;;;;9.68;9.38;;;15.70;99.90;;;;;;5106190;28;20233;-83
2022/05/19 02:00:55;;;;;;;9.45;9.15;;;15.60;99.90;;;;;;5104531;28;20229;-83
2022/05/19 02:03:41;;;;;;;9.88;9.57;;;15.50;99.90;;;;;;5105096;28;20233;-83
2022/05/19 02:06:20;;;;;;;9.98;9.68;;;15.40;99.90;;;;;;5104322;28;20229;-82
2022/05/19 02:08:51;;;;;;;10.10;9.80;;;15.30;99.90;;;;;;5105139;28;20229;-82
2022/05/19 02:11:29;;;;;;;10.00;9.70;;;15.20;99.90;;;;;;5104224;28;20229;-83
2022/05/19 02:13:59;;;;;;;9.88;9.57;;;15.10;99.90;;;;;;5103581;28;20221;-83
2022/05/19 02:16:31;;;;;;;9.63;9.32;;;15.10;99.90;;;;;;5103089;28;20229;-83
2022/05/19 02:18:59;;;;;;;9.85;9.55;;;15.10;99.90;;;;;;5103389;28;20225;-82
2022/05/19 02:21:28;;;;;;;9.57;9.27;;;15.00;99.90;;;;;;5103809;28;20251;-83
2022/05/19 02:24:01;;;;;;;9.40;9.10;;;14.90;99.90;;;;;;5104338;28;20320;-83
2022/05/19 02:26:34;;;;;;;9.75;9.45;;;14.90;99.90;;;;;;5103661;28;20240;-83
2022/05/19 02:29:11;;;;;;;9.82;9.52;;;14.90;99.90;;;;;;5104925;28;20237;-83
2022/05/19 02:31:49;;;;;;;9.80;9.50;;;14.90;99.90;;;;;;5104187;28;20288;-83
2022/05/19 02:34:27;;;;;;;9.43;9.13;;;14.80;99.90;;;;;;5105611;28;20230;-82
2022/05/19 02:36:57;;;;;;;9.60;9.30;;;14.80;99.90;;;;;;5104434;28;20247;-82
2022/05/19 02:39:26;;;;;;;9.38;9.07;;;14.80;99.90;;;;;;5105295;28;20229;-81
2022/05/19 02:41:56;;;;;;;9.48;9.18;;;14.80;99.90;;;;;;5104768;28;20245;-82
2022/05/19 02:44:25;;;;;;;9.43;9.13;;;14.80;99.90;;;;;;5104250;28;20229;-81
2022/05/19 02:47:03;;;;;;;9.93;9.63;;;14.80;99.90;;;;;;5104580;28;20238;-81
2022/05/19 02:49:33;;;;;;;9.90;9.60;;;14.80;99.90;;;;;;5104496;28;20225;-81
2022/05/19 02:52:02;;;;;;;9.73;9.43;;;14.70;99.90;;;;;;5104523;28;20225;-81
2022/05/19 02:54:32;;;;;;;9.43;9.13;;;14.80;99.90;;;;;;5103942;28;20255;-82
2022/05/19 02:57:01;;;;;;;9.40;9.10;;;14.80;99.90;;;;;;5104478;28;20229;-82
2022/05/19 02:59:31;;;;;;;9.40;9.10;;;14.80;99.90;;;;;;5104099;28;20383;-81
2022/05/19 03:02:09;;;;;;;10.25;9.95;;;14.80;99.90;;;;;;5103217;28;20233;-82
2022/05/19 03:04:38;;;;;;;10.55;10.25;;;14.90;99.90;;;;;;5103051;28;20315;-81
2022/05/19 03:07:08;;;;;;;10.20;9.90;;;14.80;99.90;;;;;;5103298;28;20256;-82
2022/05/19 03:09:38;;;;;;;10.40;10.10;;;14.80;99.90;;;;;;5103104;28;20240;-82
2022/05/19 03:12:10;;;;;;;10.65;10.35;;;14.70;99.90;;;;;;5102889;28;20260;-82
2022/05/19 03:14:38;;;;;;;10.68;10.38;;;14.70;99.90;;;;;;5103447;28;20346;-82
2022/05/19 03:17:16;;;;;;;10.57;10.27;;;14.70;99.90;;;;;;5103433;28;20214;-82
2022/05/19 03:19:47;;;;;;;10.68;10.38;;;14.70;99.90;;;;;;5103171;28;20233;-82
2022/05/19 03:22:16;;;;;;;10.77;10.48;;;14.60;99.90;;;;;;5103230;28;20243;-82
2022/05/19 03:24:45;;;;;;;11.00;10.70;;;14.60;99.90;;;;;;5103279;28;20233;-82
2022/05/19 03:27:16;;;;;;;10.95;10.65;;;14.60;99.90;;;;;;5103301;28;20246;-82
2022/05/19 03:29:45;;;;;;;10.90;10.60;;;14.60;99.90;;;;;;5103761;28;20327;-82
2022/05/19 03:32:16;;;;;;;10.98;10.68;;;14.50;99.90;;;;;;5104354;28;20233;-82
2022/05/19 03:34:44;;;;;;;10.82;10.52;;;14.50;99.90;;;;;;5103792;28;20225;-82
2022/05/19 03:37:12;;;;;;;10.60;10.30;;;14.50;99.90;;;;;;5103297;28;20291;-82
2022/05/19 03:39:42;;;;;;;10.43;10.13;;;14.40;99.90;;;;;;5103159;28;20303;-82
2022/05/19 03:42:11;;;;;;;10.20;9.90;;;14.40;99.90;;;;;;5122169;22;20240;-86
2022/05/19 03:44:40;;;;;;;10.30;10.00;;;14.30;99.90;;;;;;5091961;28;20237;-86
2022/05/19 03:47:10;;;;;;;10.30;10.00;;;14.30;99.90;;;;;;5100602;28;20234;-86
2022/05/19 03:49:48;;;;;;;10.30;10.00;;;14.30;99.90;;;;;;5100887;28;20287;-86
2022/05/19 03:52:17;;;;;;;10.40;10.10;;;14.20;99.90;;;;;;5100649;28;20240;-85
2022/05/19 03:54:46;;;;;;;10.20;9.90;;;14.20;99.90;;;;;;5100013;28;20581;-86
2022/05/19 03:57:21;;;;;;;10.20;9.90;;;14.20;99.90;;;;;;5100175;28;20225;-86
2022/05/19 03:59:49;;;;;;;10.17;9.87;;;14.10;99.90;;;;;;5100072;28;20226;-86
2022/05/19 04:02:17;;;;;;;10.10;9.80;;;14.10;99.90;;;;;;5100425;28;20240;-86
2022/05/19 04:04:47;;;;;;;10.47;10.17;;;14.10;99.90;;;;;;5100151;28;20291;-86
2022/05/19 04:07:15;;;;;;;10.50;10.20;;;14.00;99.90;;;;;;5100481;28;20230;-86
2022/05/19 04:09:43;;;;;;;10.40;10.10;;;14.10;99.90;;;;;;5112204;28;20233;-86
2022/05/19 04:12:12;;;;;;;10.70;10.40;;;14.10;99.90;;;;;;5104148;28;20378;-86
2022/05/19 04:14:42;;;;;;;10.77;10.47;;;14.10;99.90;;;;;;5101846;28;20237;-86
2022/05/19 04:17:11;;;;;;;10.73;10.43;;;14.10;99.90;;;;;;5101692;28;20281;-86
2022/05/19 04:19:41;;;;;;;10.50;10.20;;;14.10;99.90;;;;;;5101357;28;20225;-86
2022/05/19 04:22:19;;;;;;;10.30;10.00;;;14.10;99.90;;;;;;5083326;28;20307;-85
2022/05/19 04:24:48;;;;;;;10.63;10.32;;;14.10;99.90;;;;;;5080954;28;20238;-86
2022/05/19 04:27:18;;;;;;;10.73;10.43;;;14.20;99.90;;;;;;5080112;28;20648;-86
2022/05/19 04:29:48;;;;;;;10.53;10.23;;;14.20;99.90;;;;;;5081120;28;20226;-86
2022/05/19 04:32:17;;;;;;;10.40;10.10;;;14.20;99.90;;;;;;5081164;28;20230;-86
2022/05/19 04:34:46;;;;;;;10.57;10.27;;;14.20;99.90;;;;;;5082765;28;20222;-86
2022/05/19 04:37:24;;;;;;;10.33;10.03;;;14.20;99.90;;;;;;5083837;28;20284;-86
2022/05/19 04:39:55;;;;;;;10.30;10.00;;;14.20;99.90;;;;;;5083001;28;20289;-85
2022/05/19 04:42:24;;;;;;;10.60;10.30;;;14.20;99.90;;;;;;5084213;28;20230;-86
2022/05/19 04:44:55;;;;;;;10.30;10.00;;;14.20;99.90;;;;;;5082273;28;20241;-86
2022/05/19 04:47:24;;;;;;;10.80;10.50;;;14.30;99.90;;;;;;5082930;28;20230;-85
2022/05/19 04:49:52;;;;;;;10.30;10.00;;;14.30;99.90;;;;;;5082883;28;20280;-86
2022/05/19 04:55:09;;;;;;;10.50;10.20;;;14.40;99.90;;;;;;5082661;28;20293;-86
2022/05/19 04:57:38;;;;;;;10.00;9.70;;;14.50;99.90;;;;;;5083597;28;20249;-86
2022/05/19 05:00:10;;;;;;;10.47;10.17;;;14.60;99.90;;;;;;5083405;28;20229;-86
2022/05/19 05:02:38;;;;;;;10.30;10.00;;;14.70;99.90;;;;;;5083988;28;20260;-87
2022/05/19 05:05:08;;;;;;;10.23;9.93;;;14.70;99.90;;;;;;5080308;28;20237;-80
2022/05/19 05:07:37;;;;;;;10.27;9.98;;;14.80;99.90;;;;;;5080778;28;20218;-80
2022/05/19 05:10:06;;;;;;;10.20;9.90;;;14.90;99.90;;;;;;5072253;28;20239;-80
2022/05/19 05:12:34;;;;;;;10.57;10.27;;;14.90;99.90;;;;;;5072856;28;20238;-80
2022/05/19 05:15:02;;;;;;;10.43;10.13;;;15.00;99.90;;;;;;5080124;28;20226;-80
2022/05/19 05:17:30;;;;;;;10.57;10.27;;;15.00;99.90;;;;;;5080096;28;20245;-80
2022/05/19 05:19:58;;;;;;;10.70;10.40;;;15.10;99.90;;;;;;5080803;28;20237;-80
2022/05/19 05:22:25;;;;;;;10.40;10.10;;;15.20;99.90;;;;;;5079789;28;20311;-80
2022/05/19 05:24:54;;;;;;;10.70;10.40;;;15.20;99.90;;;;;;5079619;28;20636;-80
2022/05/19 05:27:22;;;;;;;10.52;10.23;;;15.30;99.90;;;;;;5079813;28;20311;-80
2022/05/19 05:29:50;;;;;;;10.40;10.10;;;15.40;99.90;;;;;;5079916;28;20230;-80
2022/05/19 05:32:17;;;;;;;10.60;10.30;;;15.50;99.90;;;;;;5079275;28;20238;-80
2022/05/19 05:34:45;;;;;;;10.48;10.18;;;15.60;99.90;;;;;;5079732;28;20269;-80
2022/05/19 05:37:13;;;;;;;10.65;10.35;;;15.60;99.90;;;;;;5080584;28;20266;-80
2022/05/19 05:39:40;;;;;;;10.63;10.32;;;15.80;99.90;;;;;;5079809;28;20252;-80
2022/05/19 05:42:11;;;;;;;10.52;10.23;;;15.80;99.90;;;;;;5078738;28;20238;-80
2022/05/19 05:44:39;;;;;;;10.80;10.50;;;15.90;99.90;;;;;;5079150;28;20245;-80
2022/05/19 05:47:07;;;;;;;10.30;10.00;;;16.00;99.90;;;;;;5079334;28;20218;-80
2022/05/19 05:49:35;;;;;;;10.75;10.45;;;16.10;99.90;;;;;;5079374;28;20292;-80
2022/05/19 05:52:04;;;;;;;10.73;10.43;;;16.10;99.90;;;;;;5079026;28;20230;-80
2022/05/19 05:54:32;;;;;;;10.27;9.98;;;16.20;99.90;;;;;;5080723;28;20249;-79
2022/05/19 05:57:00;;;;;;;10.18;9.88;;;16.30;99.90;;;;;;5089965;28;20234;-80
2022/05/19 05:59:29;;;;;;;10.40;10.10;;;16.40;99.90;;;;;;5081654;28;20233;-80
2022/05/19 06:01:56;;;;;;;10.45;10.15;;;16.50;99.90;;;;;;5080004;28;20238;-80
2022/05/19 06:04:24;;;;;;;10.70;10.40;;;16.60;99.90;;;;;;5079033;28;20234;-80
2022/05/19 06:06:52;;;;;;;10.65;10.35;;;16.70;99.90;;;;;;5079248;28;20226;-79
2022/05/19 06:09:20;;;;;;;10.95;10.65;;;16.80;99.90;;;;;;5079013;28;20242;-80
2022/05/19 06:11:47;;;;;;;10.77;10.48;;;16.90;99.90;;;;;;5074333;28;20663;-80
2022/05/19 06:14:15;;;;;;;11.00;10.70;;;16.90;99.90;;;;;;5089777;28;20676;-80
2022/05/19 06:16:44;;;;;;;10.88;10.57;;;17.00;99.90;;;;;;5097378;28;20288;-79
2022/05/19 06:19:12;;;;;;;10.90;10.60;;;17.10;99.90;;;;;;5105394;28;20237;-79
2022/05/19 06:21:40;;;;;;;10.70;10.40;;;17.20;99.90;;;;;;5106675;28;20260;-79
2022/05/19 06:24:09;;;;;;;11.30;11.00;;;17.40;99.90;;;;;;5109748;28;21252;-80
2022/05/19 06:26:38;;;;;;;10.77;10.48;;;17.40;99.90;;;;;;5111747;28;20220;-78
2022/05/19 06:29:06;;;;;;;10.55;10.25;;;17.50;99.90;;;;;;5112547;28;20233;-79
2022/05/19 06:31:34;;;;;;;10.70;10.40;;;17.60;99.90;;;;;;5110680;28;20256;-79
2022/05/19 06:34:04;;;;;;;10.98;10.68;;;17.70;99.90;;;;;;5109588;28;20221;-79
2022/05/19 06:36:31;;;;;;;11.02;10.73;;;17.80;99.90;;;;;;5096937;28;20263;-78
2022/05/19 06:38:59;;;;;;;10.88;10.57;;;18.00;99.90;;;;;;5105363;28;20237;-79
2022/05/19 06:44:12;;;;;;;10.68;10.38;;;18.10;99.90;;;;;;5114951;28;20238;-80
2022/05/19 06:46:39;;;;;;;10.70;10.40;;;18.20;99.90;;;;;;5113623;28;20222;-81
2022/05/19 06:49:09;;;;;;;10.45;10.15;;;18.20;99.90;;;;;;5116262;28;20237;-81
2022/05/19 06:51:37;;;;;;;10.63;10.32;;;18.20;99.90;;;;;;5116783;28;20234;-81
2022/05/19 06:54:06;;;;;;;10.75;10.45;;;18.40;99.90;;;;;;5117451;28;20255;-80
2022/05/19 06:56:35;;;;;;;10.65;10.35;;;18.40;99.90;;;;;;5116491;27;20218;-81
2022/05/19 06:59:04;;;;;;;10.70;10.40;;;18.50;99.90;;;;;;5115648;28;20229;-80
2022/05/19 07:01:31;;;;;;;10.63;10.32;;;18.60;99.90;;;;;;5112112;28;20292;-80
2022/05/19 07:03:59;;;;;;;10.60;10.30;;;18.70;99.90;;;;;;5108124;28;20287;-80
2022/05/19 07:06:29;;;;;;;10.90;10.60;;;18.80;99.90;;;;;;5108488;28;20225;-81
2022/05/19 07:08:56;;;;;;;10.80;10.50;;;18.90;99.90;;;;;;5108705;28;20237;-81
2022/05/19 07:11:27;;;;;;;10.77;10.48;;;19.00;99.90;;;;;;5107014;28;20248;-80
2022/05/19 07:13:58;;;;;;;10.60;10.30;;;19.10;99.90;;;;;;5107251;28;20240;-81
2022/05/19 07:16:27;;;;;;;10.95;10.65;;;19.10;99.90;;;;;;5097491;28;20276;-80
2022/05/19 07:21:43;;;;;;;10.95;10.65;;;19.30;99.90;;;;;;5080260;28;20233;-80
2022/05/19 07:24:16;;;;;;;11.13;10.82;;;19.50;99.90;;;;;;5082562;28;20298;-80
2022/05/19 07:26:44;;;;;;;11.48;11.10;;;19.70;99.90;;;;;;5081285;28;20218;-80
2022/05/19 07:29:12;;;;;;;11.35;11.05;;;19.80;99.90;;;;;;5081109;28;20262;-78
2022/05/19 07:31:40;;;;;;;10.98;10.68;;;19.80;99.90;;;;;;5082043;28;20233;-79
2022/05/19 07:34:12;;;;;;;10.77;10.48;;;19.90;99.90;;;;;;5093793;28;20287;-80
2022/05/19 07:36:42;;;;;;;10.70;10.40;;;20.00;99.90;;;;;;5076965;28;20222;-79
2022/05/19 07:39:11;;;;;;;10.68;10.38;;;20.00;99.90;;;;;;5078336;28;20238;-79
2022/05/19 07:41:43;;;;;;;10.85;10.55;;;20.00;99.90;;;;;;5078776;28;20237;-79
2022/05/19 07:44:12;;;;;;;10.70;10.40;;;20.10;99.90;;;;;;5084821;28;20234;-79
2022/05/19 07:46:44;;;;;;;10.73;10.43;;;20.20;99.90;;;;;;5085711;28;20257;-79
2022/05/19 07:49:12;;;;;;;10.80;10.50;;;20.30;99.90;;;;;;5079445;28;20324;-79
2022/05/19 07:51:44;;;;;;;11.02;10.73;;;20.40;99.90;;;;;;5076164;28;20292;-78
2022/05/19 07:54:15;;;;;;;11.02;10.73;;;20.50;99.90;;;;;;5076574;28;20261;-78
2022/05/19 07:56:44;;;;;;;10.85;10.55;;;20.50;99.90;;;;;;5076735;28;20202;-78
2022/05/19 07:59:15;;;;;;;10.93;10.63;;;20.60;99.90;;;;;;5075602;28;20233;-77
2022/05/19 08:01:45;;;;;;;10.85;10.55;;;20.80;99.90;;;;;;5075400;28;20309;-77
2022/05/19 08:04:15;;;;;;;10.50;10.20;;;20.80;99.90;;;;;;5075970;28;20236;-78
2022/05/19 08:06:46;;;;;;;10.68;10.38;;;21.00;99.90;;;;;;5075630;28;20310;-76
2022/05/19 08:12:07;;;;;;;11.10;10.80;;;21.10;99.90;;;;;;5020242;28;20232;-75
2022/05/19 08:17:22;;;;;;;11.10;10.80;;;21.00;99.90;;;;;;5078256;28;20680;-77
2022/05/19 08:19:49;;;;;;;10.93;10.63;;;21.20;99.90;;;;;;5077987;28;20425;-76
2022/05/19 08:22:19;;;;;;;11.10;10.80;;;21.20;99.90;;;;;;5078150;28;20242;-76
2022/05/19 08:24:49;;;;;;;11.35;11.05;;;21.30;99.90;;;;;;5078304;28;20238;-76
2022/05/19 08:27:18;;;;;;;11.43;11.07;;;21.30;99.90;;;;;;5079889;28;20313;-78
2022/05/19 08:29:45;;;;;;;11.30;11.00;;;21.50;99.90;;;;;;5078683;28;20245;-77
2022/05/19 08:32:14;;;;;;;11.25;10.95;;;21.60;99.90;;;;;;5079127;28;21045;-76
2022/05/19 08:34:41;;;;;;;11.40;11.10;;;21.80;99.90;;;;;;5074537;28;20918;-77
2022/05/19 08:37:09;;;;;;;11.05;10.75;;;22.00;99.90;;;;;;5078265;28;20230;-77
2022/05/19 08:39:38;;;;;;;11.15;10.85;;;22.10;99.90;;;;;;5078168;28;20261;-77
2022/05/19 08:42:09;;;;;;;11.00;10.70;;;22.30;99.90;;;;;;5077849;28;20293;-77
2022/05/19 08:44:42;;;;;;;11.05;10.75;;;22.50;99.90;;;;;;5078212;28;20222;-78
2022/05/19 08:47:15;;;;;;;10.82;10.52;;;22.60;99.90;;;;;;5069393;28;20238;-77
2022/05/19 08:49:49;;;;;;;11.30;11.00;;;22.80;99.90;;;;;;5072609;28;20238;-77
2022/05/19 08:52:21;;;;;;;11.30;11.00;;;22.90;99.90;;;;;;5078293;28;20233;-76
2022/05/19 08:54:53;;;;;;;11.10;10.80;;;23.10;99.90;;;;;;5083864;28;20237;-77
2022/05/19 08:57:25;;;;;;;10.60;10.30;;;23.30;99.90;;;;;;5078527;28;20305;-77
2022/05/19 09:00:05;;;;;;;10.90;10.60;;;23.50;99.90;;;;;;5078170;28;20229;-77
2022/05/19 09:02:39;;;;;;;10.80;10.50;;;23.80;99.90;;;;;;5077924;28;20316;-78
2022/05/19 09:05:35;;;;;;;11.00;10.70;;;24.00;99.90;;;;;;5078685;28;20229;-79
2022/05/19 09:08:15;;;;;;;10.88;10.57;;;24.20;99.90;;;;;;5071709;28;20231;-79
2022/05/19 09:11:03;;;;;;;11.30;11.00;;;24.30;99.90;;;;;;5073356;28;20229;-79
2022/05/19 09:13:39;;;;;;;11.02;10.73;;;24.40;99.90;;;;;;5062639;28;20249;-79
2022/05/19 09:16:14;;;;;;;10.80;10.50;;;24.50;99.90;;;;;;5079141;28;20269;-79
2022/05/19 09:18:48;;;;;;;11.10;10.80;;;24.50;99.90;;;;;;5078590;28;20276;-79
2022/05/19 09:21:16;;;;;;;11.20;10.90;;;24.60;99.90;;;;;;5078645;28;20238;-78
2022/05/19 09:23:43;;;;;;;11.48;11.18;;;24.50;99.90;;;;;;5078094;28;20257;-79
2022/05/19 09:26:49;;;;;;;11.35;11.05;;;24.70;99.90;;;;;;5077698;28;20261;-78
2022/05/19 09:29:21;;;;;;;11.38;11.07;;;24.80;99.90;;;;;;5075587;28;20230;-78
2022/05/19 09:31:53;;;;;;;11.48;11.18;;;25.10;99.90;;;;;;5078229;28;20238;-78
2022/05/19 09:34:26;;;;;;;11.30;11.00;;;25.40;99.90;;;;;;5078948;28;20230;-78
2022/05/19 09:37:08;;;;;;;11.18;10.88;;;25.50;99.90;;;;;;5077901;28;20252;-78
2022/05/19 09:39:51;;;;;;;11.40;11.10;;;25.80;99.90;;;;;;5073929;28;20218;-78
2022/05/19 09:42:33;;;;;;;11.20;10.90;;;26.00;99.90;;;;;;5084378;28;20267;-79
2022/05/19 09:45:01;;;;;;;11.50;11.20;;;26.10;99.90;;;;;;5089441;22;20242;-79
2022/05/19 09:47:33;;;;;;;11.20;10.90;;;26.30;99.90;;;;;;5044110;28;20239;-79
2022/05/19 09:50:11;;;;;;;11.18;10.88;;;26.40;99.90;;;;;;5042939;28;20331;-80
2022/05/19 09:52:42;;;;;;;11.40;11.10;;;26.40;99.90;;;;;;5042835;28;20695;-79
2022/05/19 09:55:14;;;;;;;11.45;11.15;;;26.50;99.90;;;;;;5041968;28;20270;-78
2022/05/19 09:57:58;;;;;;;11.38;11.07;;;26.40;99.90;;;;;;5041089;28;20275;-79
2022/05/19 10:00:40;;;;;;;11.20;10.90;;;26.60;99.90;;;;;;5021776;28;20224;-78
2022/05/19 10:03:13;;;;;;;11.65;11.25;;;26.70;99.90;;;;;;5021637;28;20290;-80
2022/05/19 10:05:50;;;;;;;11.70;11.30;;;26.80;99.90;;;;;;5036078;28;20247;-79
2022/05/19 10:08:21;;;;;;;11.15;10.85;;;27.00;99.90;;;;;;5061339;28;20234;-78
2022/05/19 10:10:59;;;;;;;11.40;11.10;;;27.10;99.90;;;;;;5061393;28;20218;-78
2022/05/19 10:13:38;;;;;;;11.30;11.00;;;27.20;99.90;;;;;;5061775;28;20244;-79
2022/05/19 10:16:15;;;;;;;11.73;11.32;;;27.20;99.90;;;;;;5061397;28;20238;-78
2022/05/19 10:19:11;;;;;;;11.55;11.20;;;27.40;99.90;;;;;;5061507;28;20237;-79
2022/05/19 10:22:04;;;;;;;11.43;11.13;;;27.70;99.90;;;;;;5046681;28;20231;-78
2022/05/19 10:24:51;;;;;;;11.38;11.07;;;27.90;99.90;;;;;;5021609;28;20270;-79
2022/05/19 10:33:32;;;;;;;11.23;10.93;;;28.10;99.90;;;;;;5044194;28;20278;-79
2022/05/19 10:36:18;;;;;;;11.15;10.85;;;28.30;99.90;;;;;;5042087;28;20234;-80
2022/05/19 10:39:06;;;;;;;10.82;10.52;;;28.50;99.90;;;;;;5041913;28;20322;-79
2022/05/19 10:42:01;;;;;;;11.02;10.73;;;28.70;99.90;;;;;;5042077;28;20262;-79
2022/05/19 10:44:57;;;;;;;11.05;10.75;;;28.90;99.90;;;;;;5039359;28;20738;-80
2022/05/19 10:47:44;;;;;;;10.70;10.40;;;28.90;99.90;;;;;;5042219;28;20227;-80
2022/05/19 10:50:31;;;;;;;10.75;10.45;;;29.00;99.90;;;;;;5040556;28;20238;-79
2022/05/19 10:53:54;;;;;;;10.93;10.63;;;29.10;99.90;;;;;;5047346;28;20291;-79
2022/05/19 10:57:08;;;;;;;10.90;10.60;;;28.90;99.90;;;;;;5021061;28;20275;-80
2022/05/19 10:59:56;;;;;;;11.07;10.77;;;28.80;99.90;;;;;;5046648;28;20254;-80
2022/05/19 11:03:19;;;;;;;11.30;11.00;;;28.90;99.90;;;;;;5043967;28;20283;-77
2022/05/19 11:06:06;;;;;;;11.10;10.80;;;29.10;99.90;;;;;;4996549;28;20232;-80
2022/05/19 11:08:52;;;;;;;11.15;10.85;;;29.10;99.90;;;;;;5038591;28;20238;-82
2022/05/19 11:11:31;;;;;;;11.32;11.02;;;29.30;99.90;;;;;;5042357;28;20254;-82
2022/05/19 11:14:17;;;;;;;11.02;10.73;;;29.70;99.90;;;;;;5042072;28;20293;-79
2022/05/19 11:16:56;;;;;;;11.20;10.90;;;29.80;99.90;;;;;;5041191;28;20289;-80
2022/05/19 11:19:34;;;;;;;11.25;10.95;;;29.50;99.90;;;;;;5042017;28;20215;-79
2022/05/19 11:22:34;;;;;;;11.32;11.02;;;29.80;99.90;;;;;;5041628;28;20321;-80
2022/05/19 11:28:02;;;;;;;10.90;10.60;;;30.10;99.90;;;;;;5061411;28;20227;-80
2022/05/19 11:30:37;;;;;;;11.10;10.80;;;30.20;99.90;;;;;;5047747;28;20308;-78
2022/05/19 11:33:14;;;;;;;11.00;10.70;;;30.40;99.90;;;;;;5066483;28;20246;-81
2022/05/19 11:35:50;;;;;;;11.02;10.73;;;30.60;99.90;;;;;;5048954;28;20234;-79
2022/05/19 11:39:02;;;;;;;11.35;11.05;;;30.90;99.90;;;;;;5040820;28;20270;-79
2022/05/19 11:41:58;;;;;;;11.27;10.98;;;31.50;99.90;;;;;;5043739;28;20235;-81
2022/05/19 11:44:36;;;;;;;11.40;11.10;;;31.70;99.90;;;;;;5040419;28;20266;-81
2022/05/19 11:47:16;;;;;;;11.60;11.20;;;31.80;99.90;;;;;;5049416;28;20226;-81
2022/05/19 11:55:37;;;;;;;11.45;11.15;;;31.50;99.90;;;;;;5029085;28;20219;-82
2022/05/19 11:58:22;;;;;;;11.35;11.05;;;31.60;99.90;;;;;;5045894;28;20231;-82
2022/05/19 12:01:01;;;;;;;11.20;10.90;;;31.70;99.90;;;;;;5048566;28;20237;-81
2022/05/19 12:03:40;;;;;;;11.77;11.38;;;31.80;99.90;;;;;;5047297;28;20243;-81
2022/05/19 12:06:20;;;;;;;11.70;11.30;;;31.90;99.90;;;;;;5047938;28;20231;-81
2022/05/19 12:11:54;;;;;;;11.82;11.43;;;32.60;99.90;;;;;;5043227;28;20231;-83
2022/05/19 12:14:40;;;;;;;11.90;11.50;;;32.40;99.90;;;;;;5046560;28;20270;-81
2022/05/19 12:17:43;;;;;;;11.27;10.98;;;32.40;99.90;;;;;;5045573;28;20235;-82
2022/05/19 12:20:47;;;;;;;11.40;11.10;;;32.50;99.90;;;;;;5046059;28;20235;-82
2022/05/19 12:23:44;;;;;;;11.50;11.15;;;32.50;99.90;;;;;;5046462;28;20235;-82
2022/05/19 12:26:21;;;;;;;11.45;11.15;;;32.40;99.90;;;;;;5046054;28;20258;-82
2022/05/19 12:28:54;;;;;;;11.30;11.00;;;31.90;99.90;;;;;;5047786;28;20246;-82
2022/05/19 12:37:30;;;;;;;11.40;11.10;;;32.30;99.90;;;;;;5047775;28;20283;-82
2022/05/19 12:41:00;;;;;;;11.38;11.07;;;32.90;99.90;;;;;;5047146;28;20231;-82
2022/05/19 12:43:39;;;;;;;11.40;11.10;;;33.50;99.90;;;;;;5038694;28;20247;-82
2022/05/19 12:46:10;;;;;;;11.80;11.40;;;34.20;99.90;;;;;;5044157;28;20383;-82
2022/05/19 12:49:31;;;;;;;11.50;11.20;;;34.50;99.90;;;;;;5043304;28;20208;-81
2022/05/19 12:52:01;;;;;;;11.80;11.40;;;35.00;99.90;;;;;;5042833;28;20246;-83
2022/05/19 12:54:33;;;;;;;11.50;11.20;;;35.30;99.90;;;;;;5042232;28;21054;-81
2022/05/19 12:57:26;;;;;;;11.38;11.07;;;35.00;99.90;;;;;;5044045;28;21073;-81
2022/05/19 13:00:13;;;;;;;11.32;11.02;;;34.40;99.90;;;;;;5044141;28;20239;-80
2022/05/19 13:02:56;;;;;;;11.50;11.20;;;34.40;99.90;;;;;;5046861;28;20278;-78
2022/05/19 13:05:39;;;;;;;11.48;11.18;;;34.30;99.90;;;;;;5043716;28;20235;-81
2022/05/19 13:08:17;;;;;;;12.05;11.65;;;34.50;99.90;;;;;;5044391;28;20241;-82
2022/05/19 13:13:37;;;;;;;11.88;11.48;;;34.90;99.90;;;;;;5043884;28;20231;-80
2022/05/19 13:16:15;;;;;;;11.88;11.48;;;35.00;99.90;;;;;;5044905;28;20281;-82
2022/05/19 13:18:50;;;;;;;12.00;11.60;;;34.90;99.90;;;;;;5048918;28;20250;-82
2022/05/19 13:21:29;;;;;;;11.80;11.40;;;34.90;99.90;;;;;;5065270;28;20334;-82
2022/05/19 13:24:02;;;;;;;11.80;11.40;;;34.90;99.90;;;;;;5065786;28;20234;-82
2022/05/19 13:26:37;;;;;;;11.38;11.07;;;34.80;99.90;;;;;;5065749;28;20414;-83
2022/05/19 13:32:04;;;;;;;11.43;11.13;;;34.20;99.90;;;;;;5069614;28;20204;-84
2022/05/19 14:03:53;;;;;;;;;;;;;;;;;;;;;
2022/05/19 14:39:37;;;;;;;10.80;10.50;;;33.00;99.90;;;;;;5137130;27;20212;-83
2022/05/19 14:45:36;;;;;;;11.00;10.70;;;33.50;99.90;;;;;;5359383;22;20270;-84
2022/05/19 14:48:23;;;;;;;10.80;10.50;;;34.00;99.90;;;;;;5139532;28;20254;-79
2022/05/19 14:51:19;;;;;;;10.88;10.57;;;34.40;99.90;;;;;;5137144;28;20282;-83
2022/05/19 15:05:41;;;;;;;11.65;11.25;;;35.30;99.90;;;;;;4982632;28;20547;-83
2022/05/19 15:08:21;;;;;;;11.70;11.30;;;35.80;99.90;;;;;;4993525;28;20229;-84
2022/05/19 15:14:30;;;;;;;10.93;10.63;;;35.70;99.90;;;;;;5062672;28;20236;-84
2022/05/19 15:21:03;;;;;;;11.05;10.75;;;35.90;99.90;;;;;;5102981;28;20332;-83
2022/05/19 15:31:04;;;;;;;11.00;10.70;;;35.10;99.90;;;;;;5104509;28;20237;-83
2022/05/19 15:36:46;;;;;;;10.23;9.93;;;35.60;99.90;;;;;;5101669;28;20229;-84